Time;durP1;ratioP1;P1;durP2;ratioP2;P2;SDS_P1;SDS_P2;PMS_P1;PMS_P2;Temp;Humidity;BMP_temperature;BMP_pressure;BME280_temperature;BME280_humidity;BME280_pressure;Samples;Min_cycle;Max_cycle;Signal;HPM_P1;HPM_P2
2023/12/17 00:00:16;;;;;;;9.73;5.07;;;-0.90;99.90;;;;;;5014464;28;20021;-75
2023/12/17 00:02:42;;;;;;;6.95;4.03;;;-1.00;99.90;;;;;;5014790;28;20072;-75
2023/12/17 00:05:08;;;;;;;7.40;4.45;;;-1.00;99.90;;;;;;5013250;28;20092;-75
2023/12/17 00:07:33;;;;;;;8.32;3.63;;;-1.10;99.90;;;;;;5014099;28;20025;-75
2023/12/17 00:09:59;;;;;;;7.43;3.88;;;-1.10;99.90;;;;;;5014421;28;20026;-75
2023/12/17 00:12:24;;;;;;;8.52;4.50;;;-1.10;99.90;;;;;;5013062;28;20030;-76
2023/12/17 00:14:50;;;;;;;7.43;3.88;;;-1.10;99.90;;;;;;5014220;28;20065;-75
2023/12/17 00:17:16;;;;;;;7.32;3.83;;;-1.10;99.90;;;;;;5013930;28;20017;-75
2023/12/17 00:19:41;;;;;;;10.20;4.40;;;-1.10;99.90;;;;;;5014249;28;20083;-76
2023/12/17 00:22:07;;;;;;;7.45;3.53;;;-1.10;99.90;;;;;;5014141;28;20026;-75
2023/12/17 00:24:33;;;;;;;7.53;3.42;;;-1.10;99.90;;;;;;5012856;28;20029;-75
2023/12/17 00:26:58;;;;;;;7.47;3.88;;;-1.10;99.90;;;;;;5013834;28;20030;-75
2023/12/17 00:29:24;;;;;;;10.23;3.95;;;-1.10;99.90;;;;;;5012810;28;20392;-76
2023/12/17 00:31:49;;;;;;;9.00;4.10;;;-1.10;99.90;;;;;;5013810;28;20021;-76
2023/12/17 00:34:15;;;;;;;6.47;3.78;;;-1.10;99.90;;;;;;5013738;28;20022;-76
2023/12/17 00:36:41;;;;;;;7.72;4.32;;;-1.10;99.90;;;;;;5013567;28;20123;-76
2023/12/17 00:39:07;;;;;;;8.23;4.20;;;-1.10;99.90;;;;;;5012592;28;20053;-76
2023/12/17 00:41:33;;;;;;;14.82;4.63;;;-1.10;99.90;;;;;;5013809;28;20026;-76
2023/12/17 00:43:59;;;;;;;8.88;4.38;;;-1.10;99.90;;;;;;5013757;28;20026;-76
2023/12/17 00:46:25;;;;;;;10.70;3.70;;;-1.20;99.90;;;;;;5011958;28;20084;-76
2023/12/17 00:48:50;;;;;;;6.22;3.92;;;-1.10;99.90;;;;;;5013762;28;20518;-76
2023/12/17 00:51:16;;;;;;;8.45;3.92;;;-1.20;99.90;;;;;;5012876;28;20036;-76
2023/12/17 00:53:41;;;;;;;8.82;4.03;;;-1.20;99.90;;;;;;5013611;28;20036;-75
2023/12/17 00:56:07;;;;;;;7.00;4.03;;;-1.30;99.90;;;;;;5013437;28;20365;-75
2023/12/17 00:58:33;;;;;;;10.73;4.72;;;-1.20;99.90;;;;;;5013226;28;20022;-75
2023/12/17 01:00:59;;;;;;;9.15;4.10;;;-1.30;99.90;;;;;;5013427;28;20076;-75
2023/12/17 01:03:24;;;;;;;7.05;4.05;;;-1.30;99.90;;;;;;5013492;28;20084;-75
2023/12/17 01:05:50;;;;;;;6.03;4.03;;;-1.40;99.90;;;;;;5013048;28;20030;-76
2023/12/17 01:08:15;;;;;;;15.57;4.80;;;-1.40;99.90;;;;;;5013064;28;20384;-75
2023/12/17 01:10:43;;;;;;;8.30;4.38;;;-1.40;99.90;;;;;;5013315;28;20028;-75
2023/12/17 01:13:08;;;;;;;9.98;4.45;;;-1.40;99.90;;;;;;5012947;28;20089;-75
2023/12/17 01:15:34;;;;;;;7.47;3.67;;;-1.40;99.90;;;;;;5013084;28;20058;-75
2023/12/17 01:17:59;;;;;;;5.80;3.38;;;-1.40;99.90;;;;;;5011696;28;20399;-75
2023/12/17 01:20:25;;;;;;;5.68;4.38;;;-1.40;99.90;;;;;;5013149;28;20599;-75
2023/12/17 01:22:50;;;;;;;6.50;4.00;;;-1.30;99.90;;;;;;5013080;28;20026;-75
2023/12/17 01:25:16;;;;;;;6.15;3.30;;;-1.30;99.90;;;;;;5011612;28;20026;-74
2023/12/17 01:27:42;;;;;;;8.68;3.78;;;-1.30;99.90;;;;;;5012639;28;20377;-75
2023/12/17 01:30:08;;;;;;;5.68;3.83;;;-1.30;99.90;;;;;;5012955;28;20030;-75
2023/12/17 01:32:33;;;;;;;7.70;3.63;;;-1.30;99.90;;;;;;5013142;28;20022;-75
2023/12/17 01:34:59;;;;;;;7.90;4.38;;;-1.20;99.90;;;;;;5012776;28;20049;-76
2023/12/17 01:37:25;;;;;;;7.05;3.08;;;-1.20;99.90;;;;;;5012621;28;20029;-75
2023/12/17 01:39:50;;;;;;;8.25;3.95;;;-1.20;99.90;;;;;;5011490;28;20030;-75
2023/12/17 01:42:16;;;;;;;7.63;2.83;;;-1.30;99.90;;;;;;5012719;28;20025;-76
2023/12/17 01:44:41;;;;;;;5.97;3.40;;;-1.30;99.90;;;;;;5012395;28;20062;-76
2023/12/17 01:47:08;;;;;;;7.05;4.38;;;-1.30;99.90;;;;;;5012531;28;20388;-74
2023/12/17 01:49:34;;;;;;;9.27;3.75;;;-1.30;99.90;;;;;;5012699;28;20021;-74
2023/12/17 01:52:00;;;;;;;6.63;3.72;;;-1.30;99.90;;;;;;5012632;28;20025;-75
2023/12/17 01:54:26;;;;;;;9.00;3.42;;;-1.30;99.90;;;;;;5012419;28;20439;-74
2023/12/17 01:56:53;;;;;;;5.57;3.22;;;-1.30;99.90;;;;;;5011073;28;20029;-75
2023/12/17 01:59:18;;;;;;;10.90;3.42;;;-1.30;99.90;;;;;;5012663;28;20076;-74
2023/12/17 02:01:47;;;;;;;9.32;4.05;;;-1.30;99.90;;;;;;5011645;28;20030;-73
2023/12/17 02:04:13;;;;;;;6.03;3.33;;;-1.30;99.90;;;;;;5012563;28;20030;-74
2023/12/17 02:06:38;;;;;;;6.25;3.90;;;-1.40;99.90;;;;;;5012146;28;20021;-74
2023/12/17 02:09:04;;;;;;;6.75;2.60;;;-1.40;99.90;;;;;;5011096;28;20030;-75
2023/12/17 02:11:30;;;;;;;5.93;2.47;;;-1.50;99.90;;;;;;5012381;28;20058;-74
2023/12/17 02:13:55;;;;;;;6.25;3.53;;;-1.50;99.90;;;;;;5012390;28;20026;-75
2023/12/17 02:16:21;;;;;;;7.97;4.05;;;-1.50;99.90;;;;;;5011940;28;20068;-74
2023/12/17 02:18:47;;;;;;;11.13;3.67;;;-1.50;99.90;;;;;;5011039;28;20477;-74
2023/12/17 02:21:12;;;;;;;3.67;2.53;;;-1.50;99.90;;;;;;5012250;28;20083;-74
2023/12/17 02:23:38;;;;;;;8.65;3.42;;;-1.60;99.90;;;;;;5011095;28;20516;-74
2023/12/17 02:26:04;;;;;;;5.38;2.78;;;-1.70;99.90;;;;;;5010759;28;20075;-74
2023/12/17 02:28:30;;;;;;;7.60;3.08;;;-1.60;99.90;;;;;;5012345;28;20084;-74
2023/12/17 02:30:55;;;;;;;6.80;2.50;;;-1.70;99.90;;;;;;5010910;28;20116;-74
2023/12/17 02:33:21;;;;;;;11.73;2.65;;;-1.70;99.90;;;;;;5012303;28;20555;-74
2023/12/17 02:35:47;;;;;;;4.47;2.47;;;-1.70;99.90;;;;;;5012045;28;20092;-74
2023/12/17 02:38:12;;;;;;;5.13;2.20;;;-1.70;99.90;;;;;;5011914;28;20030;-74
2023/12/17 02:40:38;;;;;;;4.97;2.72;;;-1.70;99.90;;;;;;5011032;28;20030;-74
2023/12/17 02:43:03;;;;;;;7.43;2.30;;;-1.80;99.90;;;;;;5012160;28;20088;-74
2023/12/17 02:45:29;;;;;;;3.70;2.45;;;-1.80;99.90;;;;;;5016905;28;20044;-73
2023/12/17 02:47:55;;;;;;;3.55;2.38;;;-1.80;99.90;;;;;;5013653;28;20034;-73
2023/12/17 02:50:20;;;;;;;4.15;2.63;;;-1.80;99.90;;;;;;5011728;28;20033;-73
2023/12/17 02:52:46;;;;;;;5.18;2.65;;;-1.80;99.90;;;;;;5012345;28;20492;-74
2023/12/17 02:55:11;;;;;;;4.70;3.10;;;-1.80;99.90;;;;;;5010742;28;20107;-76
2023/12/17 02:57:37;;;;;;;7.15;2.30;;;-1.60;99.90;;;;;;5011986;28;20022;-74
2023/12/17 03:00:03;;;;;;;4.95;2.38;;;-1.80;99.90;;;;;;5012117;28;20152;-74
2023/12/17 03:02:29;;;;;;;4.43;2.05;;;-1.90;99.90;;;;;;5012215;28;20037;-74
2023/12/17 03:04:54;;;;;;;3.28;1.98;;;-1.90;99.90;;;;;;5011995;28;20033;-74
2023/12/17 03:07:20;;;;;;;3.97;2.13;;;-2.00;99.90;;;;;;5011628;28;20065;-74
2023/12/17 03:09:47;;;;;;;2.25;2.05;;;-2.00;99.90;;;;;;5011935;28;20029;-75
2023/12/17 03:12:13;;;;;;;3.20;2.28;;;-2.00;99.90;;;;;;5011751;28;20068;-75
2023/12/17 03:14:39;;;;;;;6.38;2.40;;;-2.00;99.90;;;;;;5014961;28;20028;-74
2023/12/17 03:17:05;;;;;;;3.28;2.45;;;-2.00;99.90;;;;;;5015171;28;20100;-74
2023/12/17 03:19:30;;;;;;;3.33;2.42;;;-2.00;99.90;;;;;;5015484;28;20018;-74
2023/12/17 03:21:56;;;;;;;7.88;3.38;;;-2.00;99.90;;;;;;5015406;28;20064;-74
2023/12/17 03:24:21;;;;;;;4.63;2.72;;;-2.00;99.90;;;;;;5013705;28;20403;-74
2023/12/17 03:26:47;;;;;;;8.05;2.40;;;-2.00;99.90;;;;;;5014948;28;20026;-75
2023/12/17 03:29:12;;;;;;;3.70;2.58;;;-2.10;99.90;;;;;;5015295;28;20034;-74
2023/12/17 03:31:38;;;;;;;3.80;2.45;;;-2.10;99.90;;;;;;5013720;28;20124;-74
2023/12/17 03:34:04;;;;;;;3.65;2.92;;;-2.10;99.90;;;;;;5013851;28;20029;-74
2023/12/17 03:36:30;;;;;;;5.38;2.72;;;-2.00;99.90;;;;;;5014779;28;20022;-74
2023/12/17 03:38:56;;;;;;;6.57;3.17;;;-2.10;99.90;;;;;;5013921;28;20021;-74
2023/12/17 03:41:23;;;;;;;3.50;3.05;;;-2.10;99.90;;;;;;5015127;28;20021;-74
2023/12/17 03:43:51;;;;;;;8.00;2.78;;;-2.10;99.90;;;;;;5014859;28;20037;-74
2023/12/17 03:46:20;;;;;;;6.13;2.30;;;-2.10;99.90;;;;;;5013493;28;20064;-74
2023/12/17 03:48:46;;;;;;;4.25;2.42;;;-2.20;99.90;;;;;;5014806;28;20068;-74
2023/12/17 03:51:12;;;;;;;6.15;2.67;;;-2.20;99.90;;;;;;5014473;28;20030;-74
2023/12/17 03:53:37;;;;;;;3.33;2.17;;;-2.20;99.90;;;;;;5014970;28;20022;-75
2023/12/17 03:56:10;;;;;;;7.50;3.15;;;-2.20;99.90;;;;;;5014663;28;20026;-75
2023/12/17 03:58:36;;;;;;;13.63;4.43;;;-2.10;99.90;;;;;;5014504;28;20072;-75
2023/12/17 04:01:03;;;;;;;17.00;5.07;;;-2.10;99.90;;;;;;5014689;28;20113;-75
2023/12/17 04:03:29;;;;;;;5.22;3.65;;;-2.10;99.90;;;;;;5014524;28;20029;-75
2023/12/17 04:05:56;;;;;;;5.07;2.63;;;-2.30;99.90;;;;;;5014399;28;20018;-74
2023/12/17 04:08:21;;;;;;;6.80;2.70;;;-2.30;99.90;;;;;;5014273;28;20490;-75
2023/12/17 04:10:47;;;;;;;5.80;1.98;;;-2.30;99.90;;;;;;5013050;28;20026;-75
2023/12/17 04:13:12;;;;;;;5.60;2.67;;;-2.20;99.90;;;;;;5014242;28;20034;-75
2023/12/17 04:15:38;;;;;;;8.02;2.80;;;-2.20;99.90;;;;;;5014098;28;20497;-74
2023/12/17 04:18:04;;;;;;;4.78;2.45;;;-2.20;99.90;;;;;;5012786;28;20018;-74
2023/12/17 04:20:29;;;;;;;6.78;3.40;;;-2.20;99.90;;;;;;5014294;28;20473;-75
2023/12/17 04:22:55;;;;;;;5.47;2.50;;;-2.20;99.90;;;;;;5014009;28;20480;-74
2023/12/17 04:25:20;;;;;;;6.30;3.38;;;-2.20;99.90;;;;;;5011659;28;20119;-74
2023/12/17 04:27:46;;;;;;;4.25;2.65;;;-2.20;99.90;;;;;;5013942;28;20029;-75
2023/12/17 04:30:12;;;;;;;8.10;3.20;;;-2.20;99.90;;;;;;5012825;28;20581;-75
2023/12/17 04:32:37;;;;;;;5.80;3.08;;;-2.10;99.90;;;;;;5014062;28;20030;-74
2023/12/17 04:35:03;;;;;;;6.45;3.08;;;-2.10;99.90;;;;;;5012667;28;20026;-75
2023/12/17 04:37:29;;;;;;;4.63;2.70;;;-2.10;99.90;;;;;;5013650;28;20026;-75
2023/12/17 04:39:55;;;;;;;6.03;3.47;;;-2.10;99.90;;;;;;5014023;28;20072;-76
2023/12/17 04:42:21;;;;;;;3.30;2.45;;;-2.10;99.90;;;;;;4999237;28;20023;-74
2023/12/17 04:44:47;;;;;;;6.07;2.88;;;-2.20;99.90;;;;;;4993967;28;20062;-74
2023/12/17 04:47:12;;;;;;;4.20;3.05;;;-2.20;99.90;;;;;;4992725;28;20034;-75
2023/12/17 04:49:40;;;;;;;4.50;2.63;;;-2.20;99.90;;;;;;4992979;28;20511;-74
2023/12/17 04:52:06;;;;;;;5.25;2.97;;;-2.30;99.90;;;;;;4992742;28;20054;-74
2023/12/17 04:54:31;;;;;;;5.47;3.20;;;-2.30;99.90;;;;;;4992507;28;20018;-74
2023/12/17 04:56:57;;;;;;;4.50;2.50;;;-2.30;99.90;;;;;;4993654;28;20031;-76
2023/12/17 04:59:23;;;;;;;4.25;2.35;;;-2.30;99.90;;;;;;4993950;28;20389;-75
2023/12/17 05:01:49;;;;;;;3.22;2.35;;;-2.40;99.90;;;;;;4992705;28;20026;-74
2023/12/17 05:04:16;;;;;;;3.70;2.20;;;-2.40;99.90;;;;;;4992682;28;20377;-75
2023/12/17 05:06:42;;;;;;;7.93;2.05;;;-2.40;99.90;;;;;;4993578;28;20517;-75
2023/12/17 05:09:08;;;;;;;3.22;1.90;;;-2.40;99.90;;;;;;4993792;28;20031;-75
2023/12/17 05:11:34;;;;;;;3.70;1.65;;;-2.40;99.90;;;;;;4993395;28;20029;-74
2023/12/17 05:14:00;;;;;;;3.33;1.15;;;-2.40;99.90;;;;;;4992474;28;20022;-75
2023/12/17 05:16:26;;;;;;;5.97;1.95;;;-2.40;99.90;;;;;;4992110;28;20551;-74
2023/12/17 05:18:51;;;;;;;3.17;2.35;;;-2.30;99.90;;;;;;4993504;28;20073;-74
2023/12/17 05:21:17;;;;;;;2.92;1.70;;;-2.30;99.90;;;;;;4993520;28;20497;-74
2023/12/17 05:23:43;;;;;;;4.80;2.33;;;-2.40;99.90;;;;;;4993356;28;20088;-75
2023/12/17 05:26:09;;;;;;;6.25;1.85;;;-2.40;99.90;;;;;;4993146;28;20484;-74
2023/12/17 05:28:34;;;;;;;2.40;1.85;;;-2.40;99.90;;;;;;4993229;28;20081;-75
2023/12/17 05:31:00;;;;;;;8.80;2.42;;;-2.40;99.90;;;;;;4993378;28;20099;-75
2023/12/17 05:33:26;;;;;;;3.10;2.15;;;-2.40;99.90;;;;;;4993400;28;20033;-75
2023/12/17 05:35:51;;;;;;;4.93;1.98;;;-2.40;99.90;;;;;;4992985;28;20029;-75
2023/12/17 05:38:18;;;;;;;3.38;1.73;;;-2.40;99.90;;;;;;4992984;28;20629;-75
2023/12/17 05:40:44;;;;;;;5.05;2.17;;;-2.40;99.90;;;;;;4993137;28;20022;-73
2023/12/17 05:43:09;;;;;;;4.00;1.92;;;-2.40;99.90;;;;;;4992010;28;20081;-75
2023/12/17 05:45:35;;;;;;;5.07;2.28;;;-2.40;99.90;;;;;;4992815;28;20456;-75
2023/12/17 05:48:00;;;;;;;3.90;1.90;;;-2.30;99.90;;;;;;4992839;28;20030;-75
2023/12/17 05:50:26;;;;;;;3.38;2.30;;;-2.30;99.90;;;;;;4991794;28;20027;-75
2023/12/17 05:52:52;;;;;;;10.23;4.18;;;-2.30;99.90;;;;;;4991743;28;20022;-73
2023/12/17 05:55:19;;;;;;;8.60;4.85;;;-2.30;99.90;;;;;;4991545;28;20582;-77
2023/12/17 05:57:49;;;;;;;11.07;5.30;;;-0.30;99.90;;;;;;4992665;28;20109;-75
2023/12/17 06:00:15;;;;;;;9.02;3.83;;;-0.90;99.90;;;;;;4992982;28;20019;-74
2023/12/17 06:02:41;;;;;;;7.53;3.80;;;-1.40;99.90;;;;;;4991894;28;20436;-75
2023/12/17 06:05:07;;;;;;;6.53;3.47;;;-1.70;99.90;;;;;;4991261;28;20061;-75
2023/12/17 06:07:33;;;;;;;5.00;2.90;;;-1.90;99.90;;;;;;4992692;28;20030;-74
2023/12/17 06:09:59;;;;;;;5.47;3.97;;;-2.10;99.90;;;;;;4992845;28;20097;-75
2023/12/17 06:12:24;;;;;;;8.70;3.20;;;-2.10;99.90;;;;;;4995376;28;20521;-74
2023/12/17 06:14:50;;;;;;;4.40;2.40;;;-2.20;99.90;;;;;;4991542;28;20023;-75
2023/12/17 06:17:16;;;;;;;5.43;3.33;;;-2.40;99.90;;;;;;4993238;28;20511;-76
2023/12/17 06:19:43;;;;;;;4.13;2.45;;;-2.40;99.90;;;;;;4996564;28;20022;-76
2023/12/17 06:22:11;;;;;;;10.23;3.58;;;-2.40;99.90;;;;;;4991311;28;20026;-76
2023/12/17 06:24:37;;;;;;;4.05;2.50;;;-2.40;99.90;;;;;;4992431;28;20026;-75
2023/12/17 06:27:03;;;;;;;12.75;3.75;;;-2.50;99.90;;;;;;4992438;28;20022;-75
2023/12/17 06:29:29;;;;;;;4.03;2.85;;;-2.40;99.90;;;;;;4991245;28;20441;-75
2023/12/17 06:31:54;;;;;;;3.15;2.60;;;-2.40;99.90;;;;;;4992570;28;20034;-74
2023/12/17 06:34:20;;;;;;;4.35;3.05;;;-2.40;99.90;;;;;;4992349;28;20109;-75
2023/12/17 06:36:45;;;;;;;6.38;2.80;;;-2.40;99.90;;;;;;4992478;28;20022;-75
2023/12/17 06:39:11;;;;;;;4.10;2.65;;;-2.40;99.90;;;;;;4992498;28;20026;-75
2023/12/17 06:41:44;;;;;;;6.72;3.13;;;-2.40;99.90;;;;;;4992785;28;20030;-76
2023/12/17 06:44:09;;;;;;;6.10;3.03;;;-2.40;99.90;;;;;;4991889;28;20080;-75
2023/12/17 06:46:35;;;;;;;4.70;3.47;;;-2.40;99.90;;;;;;4992629;28;20120;-76
2023/12/17 06:49:01;;;;;;;6.18;3.70;;;-2.30;99.90;;;;;;5003180;28;20027;-76
2023/12/17 06:51:26;;;;;;;9.82;4.05;;;-2.30;99.90;;;;;;5010040;28;20088;-76
2023/12/17 06:53:52;;;;;;;5.13;3.40;;;-2.30;99.90;;;;;;5006449;28;20018;-75
2023/12/17 06:56:17;;;;;;;5.30;3.75;;;-2.30;99.90;;;;;;4998766;28;20524;-75
2023/12/17 06:58:43;;;;;;;5.93;2.88;;;-2.30;99.90;;;;;;4996549;28;20030;-76
2023/12/17 07:01:09;;;;;;;4.35;2.78;;;-2.30;99.90;;;;;;4995627;28;20029;-74
2023/12/17 07:03:34;;;;;;;8.15;3.03;;;-2.30;99.90;;;;;;4995463;28;20031;-75
2023/12/17 07:06:00;;;;;;;7.88;3.50;;;-2.30;99.90;;;;;;4996383;28;20022;-75
2023/12/17 07:08:25;;;;;;;5.53;3.05;;;-2.20;99.90;;;;;;4995927;28;20026;-75
2023/12/17 07:10:51;;;;;;;6.30;3.38;;;-2.20;99.90;;;;;;4996537;28;20037;-75
2023/12/17 07:13:17;;;;;;;9.70;3.70;;;-2.20;99.90;;;;;;4996151;28;20022;-75
2023/12/17 07:15:43;;;;;;;4.22;3.15;;;-2.10;99.90;;;;;;4996217;28;20041;-75
2023/12/17 07:18:09;;;;;;;6.45;3.35;;;-2.20;99.90;;;;;;4996221;28;20041;-75
2023/12/17 07:20:35;;;;;;;3.67;2.92;;;-2.00;99.90;;;;;;4995327;28;20492;-75
2023/12/17 07:23:00;;;;;;;6.45;3.85;;;-2.00;99.90;;;;;;4995337;28;20038;-75
2023/12/17 07:25:26;;;;;;;9.73;4.40;;;-2.00;99.90;;;;;;4995921;28;20039;-75
2023/12/17 07:27:53;;;;;;;8.57;4.00;;;-1.90;99.90;;;;;;4994433;28;20030;-75
2023/12/17 07:30:19;;;;;;;9.23;4.57;;;-1.70;99.90;;;;;;4995448;28;20027;-75
2023/12/17 07:32:44;;;;;;;8.68;4.00;;;-1.70;99.90;;;;;;4995569;28;20085;-75
2023/12/17 07:35:10;;;;;;;7.25;4.05;;;-1.70;99.90;;;;;;4995565;28;20065;-75
2023/12/17 07:37:36;;;;;;;5.35;3.70;;;-1.70;99.90;;;;;;4995240;28;20019;-75
2023/12/17 07:40:02;;;;;;;9.35;3.55;;;-1.70;99.90;;;;;;4995597;28;20046;-75
2023/12/17 07:42:27;;;;;;;6.53;3.20;;;-1.60;99.90;;;;;;4995890;28;20030;-75
2023/12/17 07:44:53;;;;;;;7.57;3.38;;;-1.60;99.90;;;;;;4995562;28;20105;-77
2023/12/17 07:47:18;;;;;;;5.93;3.47;;;-1.50;99.90;;;;;;5040017;23;20049;-75
2023/12/17 07:49:44;;;;;;;7.15;3.58;;;-1.40;99.90;;;;;;5034348;28;20100;-73
2023/12/17 07:52:11;;;;;;;5.57;3.05;;;-1.30;99.90;;;;;;5032944;28;20033;-76
2023/12/17 07:54:37;;;;;;;5.53;3.63;;;-1.30;99.90;;;;;;5034264;28;20026;-73
2023/12/17 07:57:03;;;;;;;5.43;3.25;;;-1.20;99.90;;;;;;5046098;28;20021;-75
2023/12/17 07:59:28;;;;;;;9.18;3.58;;;-1.10;99.90;;;;;;5054109;28;20046;-75
2023/12/17 08:01:54;;;;;;;7.57;3.00;;;-1.10;99.90;;;;;;5052883;28;20471;-75
2023/12/17 08:04:19;;;;;;;5.10;3.15;;;-1.00;99.90;;;;;;5054085;28;20114;-75
2023/12/17 08:06:45;;;;;;;22.38;5.05;;;-1.00;99.90;;;;;;5052348;28;20095;-75
2023/12/17 08:09:11;;;;;;;10.80;4.60;;;-0.90;99.90;;;;;;5054073;28;20086;-75
2023/12/17 08:11:37;;;;;;;9.25;3.83;;;-0.80;99.90;;;;;;5052818;28;20035;-75
2023/12/17 08:14:03;;;;;;;7.18;3.67;;;-0.80;99.90;;;;;;5053923;28;20021;-75
2023/12/17 08:16:30;;;;;;;30.77;15.75;;;-0.70;99.90;;;;;;5053595;28;20017;-75
2023/12/17 08:18:56;;;;;;;13.63;6.18;;;-0.60;99.90;;;;;;5066471;28;20078;-76
2023/12/17 08:21:21;;;;;;;8.50;3.78;;;-0.50;99.90;;;;;;5069080;28;20061;-76
2023/12/17 08:23:47;;;;;;;7.43;3.85;;;-0.50;99.90;;;;;;5071315;28;20036;-76
2023/12/17 08:26:12;;;;;;;5.85;2.88;;;-0.30;99.90;;;;;;5054622;28;20036;-75
2023/12/17 08:28:38;;;;;;;9.40;4.28;;;-0.30;99.90;;;;;;5053255;28;20029;-75
2023/12/17 08:31:09;;;;;;;14.32;6.97;;;-0.20;99.90;;;;;;5053533;28;20060;-75
2023/12/17 08:33:38;;;;;;;18.60;9.35;;;-0.20;99.90;;;;;;5053494;28;20025;-75
2023/12/17 08:36:04;;;;;;;10.00;4.95;;;-0.10;99.90;;;;;;5051983;28;20027;-75
2023/12/17 08:38:30;;;;;;;13.60;7.63;;;-0.10;99.90;;;;;;5053184;28;20575;-75
2023/12/17 08:40:56;;;;;;;38.10;16.95;;;0.00;99.90;;;;;;5053445;28;20074;-75
2023/12/17 08:43:22;;;;;;;17.70;8.50;;;0.00;99.90;;;;;;5053245;28;20032;-75
2023/12/17 08:45:47;;;;;;;9.05;4.97;;;0.10;99.90;;;;;;5051660;28;20225;-75
2023/12/17 08:48:13;;;;;;;21.85;9.35;;;0.10;99.90;;;;;;5053275;28;20064;-75
2023/12/17 08:50:38;;;;;;;18.95;9.57;;;0.20;99.90;;;;;;5051924;28;20029;-75
2023/12/17 08:53:04;;;;;;;9.05;4.78;;;0.20;99.90;;;;;;5051923;28;20021;-75
2023/12/17 08:55:30;;;;;;;12.55;6.63;;;0.30;99.90;;;;;;5051740;28;20083;-75
2023/12/17 08:57:55;;;;;;;6.47;4.35;;;0.40;99.90;;;;;;5052647;28;20029;-75
2023/12/17 09:00:21;;;;;;;14.70;5.20;;;0.50;99.90;;;;;;5052688;28;20063;-75
2023/12/17 09:02:46;;;;;;;20.42;8.98;;;0.50;99.90;;;;;;5060629;28;20088;-75
2023/12/17 09:05:12;;;;;;;15.02;7.85;;;0.50;99.90;;;;;;5068751;28;20112;-75
2023/12/17 09:07:38;;;;;;;8.32;4.70;;;0.60;99.90;;;;;;5051757;28;20033;-75
2023/12/17 09:10:04;;;;;;;12.90;6.80;;;0.70;99.90;;;;;;5050530;28;20445;-78
2023/12/17 09:12:30;;;;;;;12.48;7.00;;;0.80;99.90;;;;;;5048194;28;20064;-78
2023/12/17 09:14:56;;;;;;;11.63;7.25;;;0.90;99.90;;;;;;5043103;28;20052;-78
2023/12/17 09:17:21;;;;;;;9.40;5.57;;;0.90;99.90;;;;;;5035158;28;20067;-79
2023/12/17 09:19:47;;;;;;;9.25;5.50;;;1.00;99.90;;;;;;5032723;28;20048;-78
2023/12/17 09:22:13;;;;;;;7.88;4.95;;;1.00;99.90;;;;;;5035652;28;20021;-78
2023/12/17 09:24:39;;;;;;;12.77;5.20;;;1.10;99.90;;;;;;5035461;28;20036;-79
2023/12/17 09:27:05;;;;;;;14.35;4.25;;;1.20;99.90;;;;;;5031559;28;20026;-80
2023/12/17 09:29:31;;;;;;;8.82;3.90;;;1.30;99.90;;;;;;5032030;28;20075;-80
2023/12/17 09:31:56;;;;;;;16.30;9.43;;;1.30;99.90;;;;;;5031926;28;20025;-79
2023/12/17 09:34:22;;;;;;;19.98;11.60;;;1.40;99.90;;;;;;5032560;28;20021;-78
2023/12/17 09:36:47;;;;;;;12.55;6.75;;;1.50;99.90;;;;;;5031024;28;20420;-77
2023/12/17 09:39:13;;;;;;;9.57;5.55;;;1.60;99.90;;;;;;5031012;28;20017;-77
2023/12/17 09:41:41;;;;;;;11.07;4.88;;;1.60;99.90;;;;;;5032383;28;20104;-76
2023/12/17 09:44:07;;;;;;;5.00;3.20;;;1.80;99.90;;;;;;5032362;28;20067;-75
2023/12/17 09:46:35;;;;;;;4.78;3.35;;;1.90;99.90;;;;;;5036959;28;20113;-75
2023/12/17 09:49:01;;;;;;;7.60;3.97;;;2.00;99.90;;;;;;5042388;28;20022;-75
2023/12/17 09:51:28;;;;;;;6.38;4.30;;;2.10;99.90;;;;;;5044836;28;20029;-74
2023/12/17 09:53:57;;;;;;;9.82;4.10;;;2.10;99.90;;;;;;5032150;28;20018;-74
2023/12/17 09:56:23;;;;;;;13.48;5.30;;;2.20;99.90;;;;;;5031783;28;20124;-75
2023/12/17 09:58:49;;;;;;;6.90;4.60;;;2.30;99.90;;;;;;5032185;28;20593;-75
2023/12/17 10:01:15;;;;;;;8.88;6.20;;;2.40;99.90;;;;;;5045549;28;20021;-75
2023/12/17 10:03:40;;;;;;;10.07;4.43;;;2.50;99.90;;;;;;5042266;28;20136;-74
2023/12/17 10:06:08;;;;;;;5.50;3.47;;;2.40;99.90;;;;;;5032608;28;20018;-79
2023/12/17 10:08:36;;;;;;;7.05;4.18;;;3.70;99.90;;;;;;5033224;28;20523;-77
2023/12/17 10:11:02;;;;;;;6.63;4.53;;;3.60;99.90;;;;;;5031975;28;20040;-77
2023/12/17 10:13:28;;;;;;;6.10;3.67;;;3.30;99.90;;;;;;5030655;28;20029;-77
2023/12/17 10:15:55;;;;;;;6.85;3.42;;;3.20;99.90;;;;;;5030418;28;20075;-77
2023/12/17 10:18:22;;;;;;;9.18;4.00;;;3.10;99.90;;;;;;5031622;28;20088;-77
2023/12/17 10:20:48;;;;;;;6.57;4.22;;;3.00;99.90;;;;;;5031962;28;20476;-77
2023/12/17 10:23:14;;;;;;;10.07;5.78;;;3.10;99.90;;;;;;5031872;28;20022;-77
2023/12/17 10:25:44;;;;;;;11.75;7.65;;;3.10;99.90;;;;;;5035806;28;20034;-77
2023/12/17 10:28:10;;;;;;;8.07;4.95;;;3.20;99.90;;;;;;5034518;28;20029;-77
2023/12/17 10:30:37;;;;;;;10.25;5.85;;;3.20;99.90;;;;;;5035808;28;20589;-77
2023/12/17 10:33:05;;;;;;;8.50;4.95;;;3.30;99.90;;;;;;5035920;28;20083;-77
2023/12/17 10:35:31;;;;;;;7.82;4.28;;;3.40;99.90;;;;;;5035820;28;20415;-78
2023/12/17 10:38:06;;;;;;;6.57;4.20;;;3.50;99.90;;;;;;5035253;28;20067;-77
2023/12/17 10:40:36;;;;;;;5.47;3.40;;;4.30;99.90;;;;;;5035920;28;20026;-77
2023/12/17 10:43:04;;;;;;;10.38;3.42;;;4.30;99.90;;;;;;5034394;28;20538;-77
2023/12/17 10:45:31;;;;;;;8.38;4.03;;;4.30;99.90;;;;;;5035566;28;20029;-77
2023/12/17 10:47:59;;;;;;;6.95;4.25;;;4.20;99.90;;;;;;5035183;28;20458;-77
2023/12/17 10:50:26;;;;;;;6.78;4.05;;;4.30;99.90;;;;;;5034438;28;20033;-77
2023/12/17 10:52:52;;;;;;;7.25;4.35;;;4.30;99.90;;;;;;5035069;28;20026;-76
2023/12/17 10:55:18;;;;;;;7.55;3.83;;;4.30;99.90;;;;;;5035417;28;20024;-78
2023/12/17 10:58:07;;;;;;;6.78;4.10;;;4.30;99.90;;;;;;5034928;28;20120;-77
2023/12/17 11:00:35;;;;;;;5.97;4.00;;;4.40;99.90;;;;;;5035464;28;20028;-78
2023/12/17 11:03:06;;;;;;;8.23;3.55;;;4.50;99.90;;;;;;5035337;28;20087;-77
2023/12/17 11:05:32;;;;;;;8.80;3.65;;;4.50;99.90;;;;;;5033955;28;20488;-77
2023/12/17 11:07:58;;;;;;;6.22;3.40;;;4.50;99.90;;;;;;5033610;28;20025;-77
2023/12/17 11:10:26;;;;;;;6.18;3.63;;;4.70;99.90;;;;;;5034143;28;20550;-78
2023/12/17 11:12:53;;;;;;;7.85;4.35;;;4.70;99.90;;;;;;5035089;28;20096;-78
2023/12/17 11:15:22;;;;;;;11.95;4.95;;;4.80;99.90;;;;;;5035173;28;20026;-77
2023/12/17 11:17:53;;;;;;;8.32;3.80;;;4.80;99.90;;;;;;5034765;28;20026;-77
2023/12/17 11:20:18;;;;;;;13.07;6.15;;;5.00;99.90;;;;;;5035004;28;20025;-77
2023/12/17 11:22:45;;;;;;;7.68;5.20;;;5.10;99.90;;;;;;5034730;28;20109;-77
2023/12/17 11:25:11;;;;;;;7.65;3.80;;;5.10;99.90;;;;;;5033663;28;20087;-78
2023/12/17 11:27:39;;;;;;;14.68;5.72;;;5.10;99.90;;;;;;5034534;28;20029;-77
2023/12/17 11:30:31;;;;;;;6.80;4.13;;;5.20;99.90;;;;;;5034815;28;20391;-77
2023/12/17 11:33:01;;;;;;;6.78;3.47;;;5.30;99.90;;;;;;5034659;28;20029;-77
2023/12/17 11:35:28;;;;;;;8.75;3.08;;;5.30;99.90;;;;;;5034006;28;20021;-77
2023/12/17 11:37:54;;;;;;;9.05;3.20;;;5.40;99.90;;;;;;5034159;28;20026;-77
2023/12/17 11:40:21;;;;;;;3.60;2.90;;;5.60;99.90;;;;;;5033366;28;20026;-77
2023/12/17 11:42:59;;;;;;;5.20;3.45;;;5.60;99.90;;;;;;5034223;28;20510;-77
2023/12/17 11:45:36;;;;;;;5.03;2.95;;;5.70;99.90;;;;;;5033160;28;20072;-78
2023/12/17 11:48:07;;;;;;;6.57;3.03;;;5.80;99.90;;;;;;5033569;28;20117;-77
2023/12/17 11:50:54;;;;;;;8.75;3.83;;;5.90;99.90;;;;;;5034281;28;20041;-77
2023/12/17 11:53:20;;;;;;;5.72;3.40;;;6.00;99.90;;;;;;5033044;28;20025;-77
2023/12/17 11:55:52;;;;;;;11.43;6.40;;;6.10;99.90;;;;;;5034336;28;20105;-77
2023/12/17 11:58:19;;;;;;;8.23;4.43;;;6.10;99.90;;;;;;5032881;28;20026;-77
2023/12/17 12:01:08;;;;;;;26.95;11.82;;;6.20;99.90;;;;;;5034325;28;20053;-77
2023/12/17 12:03:34;;;;;;;38.15;20.52;;;6.20;99.90;;;;;;5034276;28;20435;-78
2023/12/17 12:06:06;;;;;;;18.90;10.73;;;6.20;99.90;;;;;;5032755;28;20079;-76
2023/12/17 12:08:33;;;;;;;6.95;4.50;;;6.30;99.90;;;;;;5034035;28;20096;-77
2023/12/17 12:10:59;;;;;;;7.07;4.22;;;6.40;99.90;;;;;;5034166;28;20523;-76
2023/12/17 12:13:25;;;;;;;6.93;3.65;;;6.50;99.90;;;;;;5032739;28;20120;-77
2023/12/17 12:15:50;;;;;;;8.23;3.42;;;6.50;99.90;;;;;;5036550;28;20026;-76
2023/12/17 12:18:21;;;;;;;6.53;3.00;;;6.60;99.90;;;;;;5037656;28;20100;-77
2023/12/17 12:20:49;;;;;;;6.60;4.05;;;6.50;99.90;;;;;;5032611;28;20049;-76
2023/12/17 12:23:14;;;;;;;7.00;3.58;;;6.60;99.90;;;;;;5032548;28;20029;-76
2023/12/17 12:25:41;;;;;;;8.57;4.32;;;6.60;99.90;;;;;;5032338;28;20380;-76
2023/12/17 12:28:20;;;;;;;7.85;4.70;;;6.70;99.90;;;;;;5033369;28;20083;-76
2023/12/17 12:30:47;;;;;;;6.70;4.15;;;6.70;99.90;;;;;;5033901;28;20095;-76
2023/12/17 12:33:17;;;;;;;5.63;3.47;;;6.70;99.90;;;;;;5041550;28;20033;-77
2023/12/17 12:35:44;;;;;;;6.28;3.40;;;6.60;99.90;;;;;;5050938;28;20020;-77
2023/12/17 12:38:39;;;;;;;6.60;3.80;;;6.60;99.90;;;;;;5051713;28;20071;-77
2023/12/17 12:41:12;;;;;;;6.53;3.40;;;6.70;99.90;;;;;;5042867;28;20030;-77
2023/12/17 12:43:41;;;;;;;6.97;3.25;;;6.70;99.90;;;;;;5048425;28;20048;-77